sensor_id;sensor_type;location;lat;lon;timestamp;pressure;altitude;pressure_sealevel;temperature;humidity
31771;BME280;18343;50.152;8.182;2023-04-22T00:01:09;96780.31;;;13.23;100.00
31771;BME280;18343;50.152;8.182;2023-04-22T00:03:54;96783.16;;;13.28;100.00
31771;BME280;18343;50.152;8.182;2023-04-22T00:06:39;96776.56;;;13.24;100.00
31771;BME280;18343;50.152;8.182;2023-04-22T00:09:23;96775.91;;;13.28;100.00
31771;BME280;18343;50.152;8.182;2023-04-22T00:12:08;96772.75;;;13.31;100.00
31771;BME280;18343;50.152;8.182;2023-04-22T00:14:54;96766.75;;;13.29;100.00
31771;BME280;18343;50.152;8.182;2023-04-22T00:17:39;96768.63;;;13.29;100.00
31771;BME280;18343;50.152;8.182;2023-04-22T00:20:24;96775.06;;;13.28;100.00
31771;BME280;18343;50.152;8.182;2023-04-22T00:23:11;96771.31;;;13.29;100.00
31771;BME280;18343;50.152;8.182;2023-04-22T00:25:56;96784.81;;;13.29;100.00
31771;BME280;18343;50.152;8.182;2023-04-22T00:28:41;96782.78;;;13.24;100.00
31771;BME280;18343;50.152;8.182;2023-04-22T00:31:26;96774.47;;;13.26;100.00
31771;BME280;18343;50.152;8.182;2023-04-22T00:34:11;96768.69;;;13.22;100.00
31771;BME280;18343;50.152;8.182;2023-04-22T00:36:55;96777.38;;;13.24;100.00
31771;BME280;18343;50.152;8.182;2023-04-22T00:39:40;96775.13;;;13.21;100.00
31771;BME280;18343;50.152;8.182;2023-04-22T00:42:24;96783.22;;;13.21;100.00
31771;BME280;18343;50.152;8.182;2023-04-22T00:45:11;96776.41;;;13.18;100.00
31771;BME280;18343;50.152;8.182;2023-04-22T00:47:59;96776.56;;;13.24;100.00
31771;BME280;18343;50.152;8.182;2023-04-22T00:50:45;96776.56;;;13.24;100.00
31771;BME280;18343;50.152;8.182;2023-04-22T00:53:29;96774.53;;;13.19;100.00
31771;BME280;18343;50.152;8.182;2023-04-22T00:56:14;96774.53;;;13.19;100.00
31771;BME280;18343;50.152;8.182;2023-04-22T00:58:59;96770.56;;;13.21;100.00
31771;BME280;18343;50.152;8.182;2023-04-22T01:01:43;96774.91;;;13.23;100.00
31771;BME280;18343;50.152;8.182;2023-04-22T01:04:29;96776.41;;;13.18;100.00
31771;BME280;18343;50.152;8.182;2023-04-22T01:07:14;96777.38;;;13.24;100.00
31771;BME280;18343;50.152;8.182;2023-04-22T01:09:59;96775.28;;;13.26;100.00
31771;BME280;18343;50.152;8.182;2023-04-22T01:12:44;96777.59;;;13.23;100.00
31771;BME280;18343;50.152;8.182;2023-04-22T01:15:28;96767.41;;;13.25;100.00
31771;BME280;18343;50.152;8.182;2023-04-22T01:18:13;96773.41;;;13.27;100.00
31771;BME280;18343;50.152;8.182;2023-04-22T01:21:00;96772.00;;;13.24;100.00
31771;BME280;18343;50.152;8.182;2023-04-22T01:23:46;96769.66;;;13.28;100.00
31771;BME280;18343;50.152;8.182;2023-04-22T01:26:31;96767.78;;;13.28;100.00
31771;BME280;18343;50.152;8.182;2023-04-22T01:29:16;96768.63;;;13.29;100.00
31771;BME280;18343;50.152;8.182;2023-04-22T01:32:01;96771.31;;;13.29;100.00
31771;BME280;18343;50.152;8.182;2023-04-22T01:34:46;96772.13;;;13.29;100.00
31771;BME280;18343;50.152;8.182;2023-04-22T01:37:31;96776.03;;;13.33;100.00
31771;BME280;18343;50.152;8.182;2023-04-22T01:40:18;96776.03;;;13.33;100.00
31771;BME280;18343;50.152;8.182;2023-04-22T01:43:04;96766.91;;;13.34;100.00
31771;BME280;18343;50.152;8.182;2023-04-22T01:45:49;96778.53;;;13.35;99.95
31771;BME280;18343;50.152;8.182;2023-04-22T01:48:34;96779.34;;;13.35;100.00
31771;BME280;18343;50.152;8.182;2023-04-22T01:51:19;96774.16;;;13.34;100.00
31771;BME280;18343;50.152;8.182;2023-04-22T01:54:04;96778.75;;;13.33;100.00
31771;BME280;18343;50.152;8.182;2023-04-22T01:56:53;96783.91;;;13.35;100.00
31771;BME280;18343;50.152;8.182;2023-04-22T01:59:38;96785.56;;;13.36;100.00
31771;BME280;18343;50.152;8.182;2023-04-22T02:02:22;96788.50;;;13.34;100.00
31771;BME280;18343;50.152;8.182;2023-04-22T02:05:08;96782.72;;;13.31;99.61
31771;BME280;18343;50.152;8.182;2023-04-22T02:07:53;96776.34;;;13.25;99.85
31771;BME280;18343;50.152;8.182;2023-04-22T02:10:38;96774.47;;;13.26;100.00
31771;BME280;18343;50.152;8.182;2023-04-22T02:13:24;96768.69;;;13.22;100.00
31771;BME280;18343;50.152;8.182;2023-04-22T02:16:09;96773.63;;;13.07;100.00
31771;BME280;18343;50.152;8.182;2023-04-22T02:18:53;96771.88;;;12.94;100.00
31771;BME280;18343;50.152;8.182;2023-04-22T02:21:39;96763.16;;;12.92;100.00
31771;BME280;18343;50.152;8.182;2023-04-22T02:24:23;96763.63;;;12.89;100.00
31771;BME280;18343;50.152;8.182;2023-04-22T02:27:08;96759.03;;;12.89;100.00
31771;BME280;18343;50.152;8.182;2023-04-22T02:29:54;96768.66;;;12.85;100.00
31771;BME280;18343;50.152;8.182;2023-04-22T02:32:39;96769.16;;;12.76;100.00
31771;BME280;18343;50.152;8.182;2023-04-22T02:35:23;96765.53;;;12.64;100.00
31771;BME280;18343;50.152;8.182;2023-04-22T02:38:09;96763.06;;;12.62;100.00
31771;BME280;18343;50.152;8.182;2023-04-22T02:40:54;96768.22;;;12.64;100.00
31771;BME280;18343;50.152;8.182;2023-04-22T02:43:38;96767.19;;;12.65;100.00
31771;BME280;18343;50.152;8.182;2023-04-22T02:46:25;96760.13;;;12.64;100.00
31771;BME280;18343;50.152;8.182;2023-04-22T02:49:09;96765.75;;;12.62;100.00
31771;BME280;18343;50.152;8.182;2023-04-22T02:51:54;96771.97;;;12.63;100.00
31771;BME280;18343;50.152;8.182;2023-04-22T02:54:38;96774.06;;;12.61;100.00
31771;BME280;18343;50.152;8.182;2023-04-22T02:57:23;96776.41;;;12.57;100.00
31771;BME280;18343;50.152;8.182;2023-04-22T03:00:08;96773.31;;;12.53;100.00
31771;BME280;18343;50.152;8.182;2023-04-22T03:02:55;96776.47;;;12.50;100.00
31771;BME280;18343;50.152;8.182;2023-04-22T03:05:39;96759.44;;;12.50;100.00
31771;BME280;18343;50.152;8.182;2023-04-22T03:08:24;96765.22;;;12.53;100.00
31771;BME280;18343;50.152;8.182;2023-04-22T03:11:09;96766.19;;;12.59;100.00
31771;BME280;18343;50.152;8.182;2023-04-22T03:13:53;96763.22;;;12.67;100.00
31771;BME280;18343;50.152;8.182;2023-04-22T03:16:38;96761.50;;;12.73;100.00
31771;BME280;18343;50.152;8.182;2023-04-22T03:19:24;96757.25;;;12.83;100.00
31771;BME280;18343;50.152;8.182;2023-04-22T03:22:08;96750.34;;;12.87;100.00
31771;BME280;18343;50.152;8.182;2023-04-22T03:24:52;96752.97;;;12.94;100.00
31771;BME280;18343;50.152;8.182;2023-04-22T03:27:37;96758.53;;;12.99;100.00
31771;BME280;18343;50.152;8.182;2023-04-22T03:30:22;96754.94;;;13.05;100.00
31771;BME280;18343;50.152;8.182;2023-04-22T03:33:06;96755.09;;;13.10;100.00
31771;BME280;18343;50.152;8.182;2023-04-22T03:35:52;96756.91;;;13.16;100.00
31771;BME280;18343;50.152;8.182;2023-04-22T03:38:37;96759.19;;;13.13;100.00
31771;BME280;18343;50.152;8.182;2023-04-22T03:41:21;96751.44;;;13.23;100.00
31771;BME280;18343;50.152;8.182;2023-04-22T03:44:06;96752.88;;;13.26;100.00
31771;BME280;18343;50.152;8.182;2023-04-22T03:46:51;96756.53;;;13.31;100.00
31771;BME280;18343;50.152;8.182;2023-04-22T03:49:35;96754.81;;;13.37;100.00
31771;BME280;18343;50.152;8.182;2023-04-22T03:52:21;96760.22;;;13.37;100.00
31771;BME280;18343;50.152;8.182;2023-04-22T03:55:06;96761.50;;;13.34;100.00
31771;BME280;18343;50.152;8.182;2023-04-22T03:57:51;96762.69;;;13.38;100.00
31771;BME280;18343;50.152;8.182;2023-04-22T04:00:35;96768.44;;;13.42;100.00
31771;BME280;18343;50.152;8.182;2023-04-22T04:03:20;96762.22;;;13.41;100.00
31771;BME280;18343;50.152;8.182;2023-04-22T04:06:05;96750.13;;;13.44;100.00
31771;BME280;18343;50.152;8.182;2023-04-22T04:08:51;96752.84;;;13.44;100.00
31771;BME280;18343;50.152;8.182;2023-04-22T04:11:35;96741.81;;;13.45;100.00
31771;BME280;18343;50.152;8.182;2023-04-22T04:14:20;96751.19;;;13.43;100.00
31771;BME280;18343;50.152;8.182;2023-04-22T04:17:05;96754.25;;;13.46;99.84
31771;BME280;18343;50.152;8.182;2023-04-22T04:19:50;96748.63;;;13.48;99.65
31771;BME280;18343;50.152;8.182;2023-04-22T04:22:34;96748.63;;;13.48;99.75
31771;BME280;18343;50.152;8.182;2023-04-22T04:25:20;96750.72;;;13.46;99.79
31771;BME280;18343;50.152;8.182;2023-04-22T04:28:05;96757.78;;;13.47;99.85
31771;BME280;18343;50.152;8.182;2023-04-22T04:30:50;96744.28;;;13.47;99.67
31771;BME280;18343;50.152;8.182;2023-04-22T04:33:34;96742.41;;;13.47;99.52
31771;BME280;18343;50.152;8.182;2023-04-22T04:36:19;96748.41;;;13.49;99.46
31771;BME280;18343;50.152;8.182;2023-04-22T04:39:04;96738.88;;;13.47;99.32
31771;BME280;18343;50.152;8.182;2023-04-22T04:41:50;96748.63;;;13.48;99.17
31771;BME280;18343;50.152;8.182;2023-04-22T04:44:35;96745.94;;;13.48;99.00
31771;BME280;18343;50.152;8.182;2023-04-22T04:47:19;96744.50;;;13.45;99.04
31771;BME280;18343;50.152;8.182;2023-04-22T04:50:04;96736.63;;;13.44;98.66
31771;BME280;18343;50.152;8.182;2023-04-22T04:52:50;96738.97;;;13.40;98.75
31771;BME280;18343;50.152;8.182;2023-04-22T04:55:35;96738.72;;;13.42;99.28
31771;BME280;18343;50.152;8.182;2023-04-22T04:58:21;96745.09;;;13.47;98.65
31771;BME280;18343;50.152;8.182;2023-04-22T05:01:06;96739.47;;;13.49;98.65
31771;BME280;18343;50.152;8.182;2023-04-22T05:03:50;96733.84;;;13.50;98.55
31771;BME280;18343;50.152;8.182;2023-04-22T05:06:35;96740.31;;;13.49;98.54
31771;BME280;18343;50.152;8.182;2023-04-22T05:09:19;96746.31;;;13.51;98.16
31771;BME280;18343;50.152;8.182;2023-04-22T05:12:04;96745.47;;;13.51;98.08
31771;BME280;18343;50.152;8.182;2023-04-22T05:14:51;96746.53;;;13.50;98.17
31771;BME280;18343;50.152;8.182;2023-04-22T05:17:36;96755.09;;;13.47;98.08
31771;BME280;18343;50.152;8.182;2023-04-22T05:20:21;96758.38;;;13.49;97.93
31771;BME280;18343;50.152;8.182;2023-04-22T05:23:06;96768.38;;;13.48;97.96
31771;BME280;18343;50.152;8.182;2023-04-22T05:25:50;96770.00;;;13.49;97.93
31771;BME280;18343;50.152;8.182;2023-04-22T05:28:34;96768.38;;;13.48;97.90
31771;BME280;18343;50.152;8.182;2023-04-22T05:31:20;96762.13;;;13.48;97.81
31771;BME280;18343;50.152;8.182;2023-04-22T05:34:05;96769.56;;;13.52;97.36
31771;BME280;18343;50.152;8.182;2023-04-22T05:36:49;96777.06;;;13.50;97.57
31771;BME280;18343;50.152;8.182;2023-04-22T05:39:34;96770.84;;;13.50;97.57
31771;BME280;18343;50.152;8.182;2023-04-22T05:42:19;96766.63;;;13.54;97.50
31771;BME280;18343;50.152;8.182;2023-04-22T05:45:05;96770.53;;;13.58;97.55
31771;BME280;18343;50.152;8.182;2023-04-22T05:47:51;96774.22;;;13.64;98.11
31771;BME280;18343;50.152;8.182;2023-04-22T05:50:35;96783.47;;;13.68;97.53
31771;BME280;18343;50.152;8.182;2023-04-22T05:53:20;96779.50;;;13.70;97.90
31771;BME280;18343;50.152;8.182;2023-04-22T05:56:05;96784.22;;;13.75;97.96
31771;BME280;18343;50.152;8.182;2023-04-22T05:58:49;96786.84;;;13.81;97.81
31771;BME280;18343;50.152;8.182;2023-04-22T06:01:35;96780.75;;;13.86;97.69
31771;BME280;18343;50.152;8.182;2023-04-22T06:04:22;96789.00;;;13.91;97.68
31771;BME280;18343;50.152;8.182;2023-04-22T06:07:06;96777.47;;;13.96;97.57
31771;BME280;18343;50.152;8.182;2023-04-22T06:09:51;96777.63;;;14.01;96.93
31771;BME280;18343;50.152;8.182;2023-04-22T06:12:35;96770.47;;;14.06;96.79
31771;BME280;18343;50.152;8.182;2023-04-22T06:15:20;96771.91;;;14.09;97.12
31771;BME280;18343;50.152;8.182;2023-04-22T06:18:05;96769.31;;;14.14;97.33
31771;BME280;18343;50.152;8.182;2023-04-22T06:20:51;96766.16;;;14.29;97.23
31771;BME280;18343;50.152;8.182;2023-04-22T06:23:35;96769.38;;;14.37;96.47
31771;BME280;18343;50.152;8.182;2023-04-22T06:26:20;96764.34;;;14.52;96.55
31771;BME280;18343;50.152;8.182;2023-04-22T06:29:04;96765.06;;;14.60;96.45
31771;BME280;18343;50.152;8.182;2023-04-22T06:31:49;96759.66;;;14.71;96.07
31771;BME280;18343;50.152;8.182;2023-04-22T06:34:33;96761.88;;;14.86;96.50
31771;BME280;18343;50.152;8.182;2023-04-22T06:37:19;96758.00;;;14.94;95.95
31771;BME280;18343;50.152;8.182;2023-04-22T06:40:06;96765.44;;;14.98;95.21
31771;BME280;18343;50.152;8.182;2023-04-22T06:42:50;96766.00;;;15.00;95.54
31771;BME280;18343;50.152;8.182;2023-04-22T06:45:35;96775.41;;;15.09;95.72
31771;BME280;18343;50.152;8.182;2023-04-22T06:48:20;96768.50;;;15.02;93.79
31771;BME280;18343;50.152;8.182;2023-04-22T06:51:04;96759.06;;;15.04;94.74
31771;BME280;18343;50.152;8.182;2023-04-22T06:53:51;96759.38;;;15.19;94.55
31771;BME280;18343;50.152;8.182;2023-04-22T06:56:35;96764.53;;;15.33;94.27
31771;BME280;18343;50.152;8.182;2023-04-22T06:59:20;96766.97;;;15.46;94.67
31771;BME280;18343;50.152;8.182;2023-04-22T07:02:05;96770.25;;;15.60;94.84
31771;BME280;18343;50.152;8.182;2023-04-22T07:04:50;96770.75;;;15.56;93.84
31771;BME280;18343;50.152;8.182;2023-04-22T07:07:35;96777.66;;;15.64;92.97
31771;BME280;18343;50.152;8.182;2023-04-22T07:10:21;96777.44;;;15.66;92.67
31771;BME280;18343;50.152;8.182;2023-04-22T07:13:05;96766.47;;;15.61;92.46
31771;BME280;18343;50.152;8.182;2023-04-22T07:15:50;96767.75;;;15.70;93.33
31771;BME280;18343;50.152;8.182;2023-04-22T07:18:35;96769.38;;;15.82;92.27
31771;BME280;18343;50.152;8.182;2023-04-22T07:21:19;96767.25;;;15.84;90.39
31771;BME280;18343;50.152;8.182;2023-04-22T07:24:04;96768.72;;;15.92;91.81
31771;BME280;18343;50.152;8.182;2023-04-22T07:26:51;96769.75;;;16.03;90.65
31771;BME280;18343;50.152;8.182;2023-04-22T07:29:35;96762.28;;;16.10;90.32
31771;BME280;18343;50.152;8.182;2023-04-22T07:32:20;96759.59;;;15.81;90.34
31771;BME280;18343;50.152;8.182;2023-04-22T07:35:06;96751.91;;;16.07;89.91
31771;BME280;18343;50.152;8.182;2023-04-22T07:37:50;96752.91;;;16.17;89.69
31771;BME280;18343;50.152;8.182;2023-04-22T07:40:34;96748.47;;;16.28;89.21
31771;BME280;18343;50.152;8.182;2023-04-22T07:43:20;96743.47;;;16.37;88.30
31771;BME280;18343;50.152;8.182;2023-04-22T07:46:05;96747.16;;;16.47;87.40
31771;BME280;18343;50.152;8.182;2023-04-22T07:48:49;96746.84;;;16.27;86.76
31771;BME280;18343;50.152;8.182;2023-04-22T07:51:34;96742.16;;;16.56;87.49
31771;BME280;18343;50.152;8.182;2023-04-22T07:54:18;96747.09;;;16.59;85.87
31771;BME280;18343;50.152;8.182;2023-04-22T07:57:03;96745.06;;;16.66;86.33
31771;BME280;18343;50.152;8.182;2023-04-22T07:59:50;96746.84;;;16.61;86.05
31771;BME280;18343;50.152;8.182;2023-04-22T08:02:35;96739.34;;;16.51;85.25
31771;BME280;18343;50.152;8.182;2023-04-22T08:05:19;96752.09;;;16.50;85.16
31771;BME280;18343;50.152;8.182;2023-04-22T08:08:04;96748.41;;;16.73;85.11
31771;BME280;18343;50.152;8.182;2023-04-22T08:13:52;96740.63;;;17.15;85.72
31771;BME280;18343;50.152;8.182;2023-04-22T08:16:38;96744.53;;;17.24;84.46
31771;BME280;18343;50.152;8.182;2023-04-22T08:19:23;96747.69;;;17.38;83.99
31771;BME280;18343;50.152;8.182;2023-04-22T08:22:08;96745.25;;;17.37;83.60
31771;BME280;18343;50.152;8.182;2023-04-22T08:24:52;96743.59;;;17.36;83.06
31771;BME280;18343;50.152;8.182;2023-04-22T08:27:37;96741.13;;;17.34;83.09
31771;BME280;18343;50.152;8.182;2023-04-22T08:30:21;96738.16;;;17.57;83.83
31771;BME280;18343;50.152;8.182;2023-04-22T08:33:07;96741.91;;;17.73;83.75
31771;BME280;18343;50.152;8.182;2023-04-22T08:35:52;96738.13;;;17.74;82.07
31771;BME280;18343;50.152;8.182;2023-04-22T08:38:37;96742.09;;;17.67;81.24
31771;BME280;18343;50.152;8.182;2023-04-22T08:41:22;96736.41;;;17.68;81.68
31771;BME280;18343;50.152;8.182;2023-04-22T08:44:07;96738.06;;;17.69;81.47
31771;BME280;18343;50.152;8.182;2023-04-22T08:46:52;96737.38;;;17.62;81.23
31771;BME280;18343;50.152;8.182;2023-04-22T08:49:39;96728.81;;;17.48;80.11
31771;BME280;18343;50.152;8.182;2023-04-22T08:52:26;96734.84;;;17.55;81.05
31771;BME280;18343;50.152;8.182;2023-04-22T08:55:11;96721.47;;;17.71;80.99
31771;BME280;18343;50.152;8.182;2023-04-22T08:57:55;96720.88;;;17.90;81.67
31771;BME280;18343;50.152;8.182;2023-04-22T09:00:42;96722.66;;;18.07;82.02
31771;BME280;18343;50.152;8.182;2023-04-22T09:03:27;96720.91;;;18.22;81.36
31771;BME280;18343;50.152;8.182;2023-04-22T09:06:13;96723.00;;;18.15;78.27
31771;BME280;18343;50.152;8.182;2023-04-22T09:08:59;96720.75;;;18.07;79.51
31771;BME280;18343;50.152;8.182;2023-04-22T09:11:44;96733.59;;;18.12;79.84
31771;BME280;18343;50.152;8.182;2023-04-22T09:14:29;96732.75;;;17.84;78.36
31771;BME280;18343;50.152;8.182;2023-04-22T09:17:15;96727.88;;;17.86;77.89
31771;BME280;18343;50.152;8.182;2023-04-22T09:20:01;96728.97;;;17.85;77.72
31771;BME280;18343;50.152;8.182;2023-04-22T09:22:49;96729.47;;;17.82;78.91
31771;BME280;18343;50.152;8.182;2023-04-22T09:25:34;96723.53;;;17.85;78.90
31771;BME280;18343;50.152;8.182;2023-04-22T09:28:18;96727.38;;;17.89;78.89
31771;BME280;18343;50.152;8.182;2023-04-22T09:31:03;96725.59;;;18.00;78.69
31771;BME280;18343;50.152;8.182;2023-04-22T09:33:51;96732.72;;;18.06;78.07
31771;BME280;18343;50.152;8.182;2023-04-22T09:36:36;96729.72;;;18.08;77.17
31771;BME280;18343;50.152;8.182;2023-04-22T09:39:22;96726.50;;;18.11;78.09
31771;BME280;18343;50.152;8.182;2023-04-22T09:42:07;96735.59;;;18.21;77.52
31771;BME280;18343;50.152;8.182;2023-04-22T09:44:51;96725.22;;;18.18;77.43
31771;BME280;18343;50.152;8.182;2023-04-22T09:47:36;96726.84;;;18.19;78.22
31771;BME280;18343;50.152;8.182;2023-04-22T09:50:23;96730.78;;;18.34;78.02
31771;BME280;18343;50.152;8.182;2023-04-22T09:53:09;96731.66;;;18.39;77.23
31771;BME280;18343;50.152;8.182;2023-04-22T09:55:56;96728.25;;;18.54;78.50
31771;BME280;18343;50.152;8.182;2023-04-22T09:58:42;96724.78;;;18.64;77.20
31771;BME280;18343;50.152;8.182;2023-04-22T10:01:35;96727.03;;;18.72;78.17
31771;BME280;18343;50.152;8.182;2023-04-22T10:04:19;96720.38;;;18.94;78.32
31771;BME280;18343;50.152;8.182;2023-04-22T10:07:04;96713.94;;;19.11;77.39
31771;BME280;18343;50.152;8.182;2023-04-22T10:09:48;96711.25;;;19.21;78.43
31771;BME280;18343;50.152;8.182;2023-04-22T10:12:35;96708.56;;;19.26;77.30
31771;BME280;18343;50.152;8.182;2023-04-22T10:15:20;96700.25;;;19.53;76.14
31771;BME280;18343;50.152;8.182;2023-04-22T10:18:09;96704.63;;;19.59;76.08
31771;BME280;18343;50.152;8.182;2023-04-22T10:20:56;96697.59;;;19.68;75.66
31771;BME280;18343;50.152;8.182;2023-04-22T10:23:46;96698.13;;;19.65;74.40
31771;BME280;18343;50.152;8.182;2023-04-22T10:26:53;96696.28;;;19.23;72.52
31771;BME280;18343;50.152;8.182;2023-04-22T10:29:40;96698.22;;;19.28;74.78
31771;BME280;18343;50.152;8.182;2023-04-22T10:32:26;96702.47;;;19.61;73.52
31771;BME280;18343;50.152;8.182;2023-04-22T10:35:13;96691.56;;;19.71;72.14
31771;BME280;18343;50.152;8.182;2023-04-22T10:37:58;96693.25;;;20.03;72.27
31771;BME280;18343;50.152;8.182;2023-04-22T10:40:57;96697.66;;;20.34;73.47
31771;BME280;18343;50.152;8.182;2023-04-22T10:43:44;96686.50;;;20.51;71.20
31771;BME280;18343;50.152;8.182;2023-04-22T10:46:59;96692.22;;;20.54;67.73
31771;BME280;18343;50.152;8.182;2023-04-22T10:49:44;96686.22;;;20.52;69.29
31771;BME280;18343;50.152;8.182;2023-04-22T10:52:29;96686.75;;;20.54;68.89
31771;BME280;18343;50.152;8.182;2023-04-22T10:55:13;96690.84;;;20.67;67.44
31771;BME280;18343;50.152;8.182;2023-04-22T10:57:58;96691.63;;;20.88;68.42
31771;BME280;18343;50.152;8.182;2023-04-22T11:00:43;96684.25;;;20.93;66.95
31771;BME280;18343;50.152;8.182;2023-04-22T11:03:29;96679.59;;;20.94;66.99
31771;BME280;18343;50.152;8.182;2023-04-22T11:06:18;96681.78;;;20.87;64.86
31771;BME280;18343;50.152;8.182;2023-04-22T11:09:10;96683.44;;;20.88;64.83
31771;BME280;18343;50.152;8.182;2023-04-22T11:12:41;96683.47;;;20.78;66.45
31771;BME280;18343;50.152;8.182;2023-04-22T11:15:25;96672.50;;;20.93;64.83
31771;BME280;18343;50.152;8.182;2023-04-22T11:18:19;96681.78;;;20.97;64.04
31771;BME280;18343;50.152;8.182;2023-04-22T11:21:06;96673.09;;;20.75;63.22
31771;BME280;18343;50.152;8.182;2023-04-22T11:23:51;96676.66;;;20.70;64.05
31771;BME280;18343;50.152;8.182;2023-04-22T11:26:36;96678.00;;;20.52;63.30
31771;BME280;18343;50.152;8.182;2023-04-22T11:29:20;96679.09;;;20.77;64.46
31771;BME280;18343;50.152;8.182;2023-04-22T11:32:05;96675.50;;;20.81;64.12
31771;BME280;18343;50.152;8.182;2023-04-22T11:34:50;96675.22;;;21.03;64.23
31771;BME280;18343;50.152;8.182;2023-04-22T11:37:41;96669.22;;;20.86;62.85
31771;BME280;18343;50.152;8.182;2023-04-22T11:40:28;96666.44;;;21.06;62.08
31771;BME280;18343;50.152;8.182;2023-04-22T11:43:13;96681.47;;;21.24;62.64
31771;BME280;18343;50.152;8.182;2023-04-22T11:45:59;96670.97;;;21.41;61.99
31771;BME280;18343;50.152;8.182;2023-04-22T11:48:44;96664.91;;;21.54;61.11
31771;BME280;18343;50.152;8.182;2023-04-22T11:51:29;96681.94;;;21.36;58.87
31771;BME280;18343;50.152;8.182;2023-04-22T11:54:15;96667.66;;;21.49;60.21
31771;BME280;18343;50.152;8.182;2023-04-22T11:57:02;96667.38;;;21.56;59.30
31771;BME280;18343;50.152;8.182;2023-04-22T11:59:56;96668.81;;;21.38;59.28
31771;BME280;18343;50.152;8.182;2023-04-22T12:02:41;96668.19;;;21.56;58.33
31771;BME280;18343;50.152;8.182;2023-04-22T12:05:34;96664.28;;;21.68;59.04
31771;BME280;18343;50.152;8.182;2023-04-22T12:08:22;96660.75;;;21.62;57.68
31771;BME280;18343;50.152;8.182;2023-04-22T12:11:10;96657.00;;;21.53;56.77
31771;BME280;18343;50.152;8.182;2023-04-22T12:13:55;96656.78;;;21.34;56.52
31771;BME280;18343;50.152;8.182;2023-04-22T12:16:40;96661.75;;;21.17;56.59
31771;BME280;18343;50.152;8.182;2023-04-22T12:19:26;96651.16;;;21.05;56.86
31771;BME280;18343;50.152;8.182;2023-04-22T12:22:10;96646.72;;;21.14;57.26
31771;BME280;18343;50.152;8.182;2023-04-22T12:24:57;96662.31;;;21.24;57.10
31771;BME280;18343;50.152;8.182;2023-04-22T12:27:44;96666.13;;;21.28;56.26
31771;BME280;18343;50.152;8.182;2023-04-22T12:30:28;96648.91;;;21.27;55.34
31771;BME280;18343;50.152;8.182;2023-04-22T12:33:13;96646.72;;;21.19;54.18
31771;BME280;18343;50.152;8.182;2023-04-22T12:35:58;96653.38;;;20.83;53.63
31771;BME280;18343;50.152;8.182;2023-04-22T12:38:45;96666.53;;;20.66;53.48
31771;BME280;18343;50.152;8.182;2023-04-22T12:41:30;96666.53;;;20.55;53.21
31771;BME280;18343;50.152;8.182;2023-04-22T12:44:35;96661.63;;;20.52;53.39
31771;BME280;18343;50.152;8.182;2023-04-22T12:47:19;96654.28;;;20.38;53.89
31771;BME280;18343;50.152;8.182;2023-04-22T12:50:05;96658.66;;;20.44;54.20
31771;BME280;18343;50.152;8.182;2023-04-22T12:52:50;96658.88;;;20.27;54.44
31771;BME280;18343;50.152;8.182;2023-04-22T12:55:35;96656.75;;;20.39;54.74
31771;BME280;18343;50.152;8.182;2023-04-22T12:58:19;96651.78;;;20.67;54.52
31771;BME280;18343;50.152;8.182;2023-04-22T13:01:05;96656.09;;;20.93;54.41
31771;BME280;18343;50.152;8.182;2023-04-22T13:03:50;96650.00;;;21.11;54.63
31771;BME280;18343;50.152;8.182;2023-04-22T13:06:35;96654.66;;;21.21;54.01
31771;BME280;18343;50.152;8.182;2023-04-22T13:09:21;96654.94;;;21.14;53.91
31771;BME280;18343;50.152;8.182;2023-04-22T13:12:05;96658.28;;;21.01;54.29
31771;BME280;18343;50.152;8.182;2023-04-22T13:14:50;96657.75;;;20.89;53.25
31771;BME280;18343;50.152;8.182;2023-04-22T13:17:37;96639.47;;;20.74;53.06
31771;BME280;18343;50.152;8.182;2023-04-22T13:20:25;96645.22;;;20.73;53.18
31771;BME280;18343;50.152;8.182;2023-04-22T13:23:10;96644.94;;;20.74;52.98
31771;BME280;18343;50.152;8.182;2023-04-22T13:25:55;96646.31;;;20.56;52.57
31771;BME280;18343;50.152;8.182;2023-04-22T13:28:39;96640.91;;;20.41;52.02
31771;BME280;18343;50.152;8.182;2023-04-22T13:31:24;96642.25;;;20.23;51.31
31771;BME280;18343;50.152;8.182;2023-04-22T13:34:11;96637.84;;;20.27;52.22
31771;BME280;18343;50.152;8.182;2023-04-22T13:36:56;96641.13;;;20.29;51.60
31771;BME280;18343;50.152;8.182;2023-04-22T13:39:41;96643.31;;;20.33;51.64
31771;BME280;18343;50.152;8.182;2023-04-22T13:42:25;96640.31;;;20.29;51.01
31771;BME280;18343;50.152;8.182;2023-04-22T13:45:10;96641.41;;;20.13;50.93
31771;BME280;18343;50.152;8.182;2023-04-22T13:47:54;96644.16;;;20.13;51.16
31771;BME280;18343;50.152;8.182;2023-04-22T13:50:40;96636.50;;;20.10;50.74
31771;BME280;18343;50.152;8.182;2023-04-22T13:53:25;96643.06;;;20.09;50.69
31771;BME280;18343;50.152;8.182;2023-04-22T13:56:10;96641.13;;;19.99;50.85
31771;BME280;18343;50.152;8.182;2023-04-22T13:58:55;96648.75;;;19.82;50.56
31771;BME280;18343;50.152;8.182;2023-04-22T14:01:39;96664.84;;;19.68;50.31
31771;BME280;18343;50.152;8.182;2023-04-22T14:04:24;96655.47;;;19.49;50.65
31771;BME280;18343;50.152;8.182;2023-04-22T14:07:10;96647.06;;;19.55;50.52
31771;BME280;18343;50.152;8.182;2023-04-22T14:09:55;96655.53;;;19.59;50.67
31771;BME280;18343;50.152;8.182;2023-04-22T14:12:40;96671.00;;;19.48;50.75
31771;BME280;18343;50.152;8.182;2023-04-22T14:15:24;96664.94;;;19.26;50.91
31771;BME280;18343;50.152;8.182;2023-04-22T14:18:09;96669.25;;;19.17;50.69
31771;BME280;18343;50.152;8.182;2023-04-22T14:20:55;96663.00;;;19.11;51.10
31771;BME280;18343;50.152;8.182;2023-04-22T14:23:42;96662.41;;;19.04;51.45
31771;BME280;18343;50.152;8.182;2023-04-22T14:26:27;96653.63;;;18.97;51.48
31771;BME280;18343;50.152;8.182;2023-04-22T14:29:11;96655.47;;;18.81;52.13
31771;BME280;18343;50.152;8.182;2023-04-22T14:31:56;96662.78;;;18.76;52.37
31771;BME280;18343;50.152;8.182;2023-04-22T14:34:41;96657.66;;;18.84;52.22
31771;BME280;18343;50.152;8.182;2023-04-22T14:37:26;96653.03;;;18.85;52.18